Time;durP1;ratioP1;P1;durP2;ratioP2;P2;SDS_P1;SDS_P2;PMS_P1;PMS_P2;Temp;Humidity;BMP_temperature;BMP_pressure;BME280_temperature;BME280_humidity;BME280_pressure;Samples;Min_cycle;Max_cycle;Signal;HPM_P1;HPM_P2
2023/01/10 00:00:54;;;;;;;8.67;3.63;;;;;;;;;;5075127;28;20281;-85
2023/01/10 00:03:22;;;;;;;10.27;2.77;;;;;;;;;;5057790;28;20199;-85
2023/01/10 00:05:52;;;;;;;11.63;2.80;;;;;;;;;;5057001;28;20198;-85
2023/01/10 00:08:21;;;;;;;4.43;1.60;;;;;;;;;;5057535;28;20233;-85
2023/01/10 00:10:49;;;;;;;7.77;2.00;;;;;;;;;;5052139;28;20234;-85
2023/01/10 00:13:23;;;;;;;13.80;4.40;;;;;;;;;;5055178;28;20202;-85
2023/01/10 00:15:52;;;;;;;3.27;1.93;;;;;;;;;;5054737;28;20296;-85
2023/01/10 00:18:21;;;;;;;10.87;3.47;;;;;;;;;;5053690;28;20198;-85
2023/01/10 00:20:49;;;;;;;5.10;2.27;;;;;;;;;;5054963;28;20259;-85
2023/01/10 00:23:23;;;;;;;8.53;3.53;;;;;;;;;;5053580;28;20198;-85
2023/01/10 00:25:51;;;;;;;6.20;3.40;;;;;;;;;;5053650;28;20208;-85
2023/01/10 00:28:20;;;;;;;8.63;2.73;;;;;;;;;;5053644;28;20218;-85
2023/01/10 00:30:53;;;;;;;13.13;4.73;;;;;;;;;;5054132;28;20205;-85
2023/01/10 00:33:22;;;;;;;13.10;3.23;;;;;;;;;;5053544;28;20237;-85
2023/01/10 00:35:50;;;;;;;7.50;2.43;;;;;;;;;;5053097;28;20223;-85
2023/01/10 00:38:20;;;;;;;5.27;1.93;;;;;;;;;;5053268;28;20210;-85
2023/01/10 00:40:49;;;;;;;10.00;3.83;;;;;;;;;;5053170;28;20198;-85
2023/01/10 00:46:17;;;;;;;7.07;2.77;;;;;;;;;;4996205;28;20224;-85
2023/01/10 00:48:46;;;;;;;8.50;3.17;;;;;;;;;;4996062;28;20204;-85
2023/01/10 00:51:17;;;;;;;17.57;5.40;;;;;;;;;;5020545;28;20208;-85
2023/01/10 00:53:47;;;;;;;3.60;1.83;;;;;;;;;;5053116;28;20229;-85
2023/01/10 00:56:15;;;;;;;9.53;3.20;;;;;;;;;;5053826;28;20249;-85
2023/01/10 00:58:44;;;;;;;6.53;2.27;;;;;;;;;;5053331;28;20203;-85
2023/01/10 01:01:12;;;;;;;14.03;4.10;;;;;;;;;;5052763;28;20213;-85
2023/01/10 01:03:40;;;;;;;9.50;2.80;;;;;;;;;;5052642;28;20258;-85
2023/01/10 01:06:09;;;;;;;7.67;2.33;;;;;;;;;;5052929;28;20249;-85
2023/01/10 01:08:37;;;;;;;9.83;4.40;;;;;;;;;;5053997;28;20205;-85
2023/01/10 01:11:08;;;;;;;13.87;4.10;;;;;;;;;;5056485;28;20197;-85
2023/01/10 01:13:37;;;;;;;9.97;3.23;;;;;;;;;;5055961;28;20210;-85
2023/01/10 01:16:05;;;;;;;9.17;3.33;;;;;;;;;;5056314;28;20222;-85
2023/01/10 01:18:34;;;;;;;9.60;2.40;;;;;;;;;;5056343;28;20210;-85
2023/01/10 01:21:04;;;;;;;8.93;3.30;;;;;;;;;;5056086;28;20237;-86
2023/01/10 01:23:34;;;;;;;12.67;3.33;;;;;;;;;;5056349;28;20205;-85
2023/01/10 01:26:02;;;;;;;11.87;4.30;;;;;;;;;;5055989;28;20206;-85
2023/01/10 01:28:32;;;;;;;4.77;3.00;;;;;;;;;;5056021;28;20238;-85
2023/01/10 01:31:07;;;;;;;12.53;4.07;;;;;;;;;;5055839;28;20206;-85
2023/01/10 01:33:36;;;;;;;13.03;2.50;;;;;;;;;;5055803;28;20243;-85
2023/01/10 01:36:08;;;;;;;21.80;5.10;;;;;;;;;;5055886;28;20222;-85
2023/01/10 01:38:37;;;;;;;8.87;4.20;;;;;;;;;;5056128;28;20540;-85
2023/01/10 01:41:55;;;;;;;10.70;2.83;;;;;;;;;;5073389;28;20201;-85
2023/01/10 01:44:02;;;;;;;10.33;2.80;;;;;;;;;;5055238;28;20256;-85
2023/01/10 01:46:31;;;;;;;15.17;5.03;;;;;;;;;;5073578;28;20201;-85
2023/01/10 01:49:00;;;;;;;15.80;3.97;;;;;;;;;;5055503;28;20233;-85
2023/01/10 01:51:29;;;;;;;15.27;3.10;;;;;;;;;;5073284;28;20201;-85
2023/01/10 01:54:00;;;;;;;18.67;5.83;;;;;;;;;;5073693;28;20221;-85
2023/01/10 01:56:30;;;;;;;19.27;5.63;;;;;;;;;;5055340;28;20231;-85
2023/01/10 01:59:02;;;;;;;17.03;4.43;;;;;;;;;;5056005;28;20262;-85
2023/01/10 02:01:31;;;;;;;8.30;2.87;;;;;;;;;;5055730;28;20197;-85
2023/01/10 02:04:02;;;;;;;6.63;3.07;;;;;;;;;;5055363;28;20248;-85
2023/01/10 02:06:30;;;;;;;11.50;3.00;;;;;;;;;;5055763;28;20197;-85
2023/01/10 02:09:02;;;;;;;7.00;4.17;;;;;;;;;;5072975;28;20247;-85
2023/01/10 02:11:31;;;;;;;8.43;2.30;;;;;;;;;;5055821;28;20209;-85
2023/01/10 02:14:02;;;;;;;12.90;3.03;;;;;;;;;;5055267;28;20194;-85
2023/01/10 02:16:30;;;;;;;18.23;4.20;;;;;;;;;;5055268;28;20209;-85
2023/01/10 02:18:59;;;;;;;12.07;3.93;;;;;;;;;;5055646;28;20247;-85
2023/01/10 02:21:51;;;;;;;17.70;3.60;;;;;;;;;;5055503;28;20202;-85
2023/01/10 02:24:38;;;;;;;11.10;4.40;;;;;;;;;;5073259;28;20210;-86
2023/01/10 02:27:20;;;;;;;9.57;3.67;;;;;;;;;;5055298;28;20206;-85
2023/01/10 02:30:18;;;;;;;4.40;2.27;;;;;;;;;;5055384;28;20220;-85
2023/01/10 02:32:49;;;;;;;15.43;6.40;;;;;;;;;;5073041;28;20220;-85
2023/01/10 02:35:46;;;;;;;10.90;3.17;;;;;;;;;;5071863;28;20201;-85
2023/01/10 02:38:21;;;;;;;13.33;3.63;;;;;;;;;;5070394;28;20205;-85
2023/01/10 02:40:52;;;;;;;17.77;4.60;;;;;;;;;;5055258;28;20198;-85
2023/01/10 02:43:23;;;;;;;10.70;3.30;;;;;;;;;;5055083;28;20256;-85
2023/01/10 02:45:56;;;;;;;15.00;4.03;;;;;;;;;;5055134;28;20198;-85
2023/01/10 02:48:26;;;;;;;13.70;2.30;;;;;;;;;;5055206;28;20202;-86
2023/01/10 02:50:57;;;;;;;16.13;3.70;;;;;;;;;;5055279;28;20198;-85
2023/01/10 02:53:27;;;;;;;6.20;2.87;;;;;;;;;;5056018;28;20202;-85
2023/01/10 02:56:19;;;;;;;5.33;1.90;;;;;;;;;;5058749;28;20279;-85
2023/01/10 02:58:54;;;;;;;14.00;4.13;;;;;;;;;;5076209;28;20210;-85
2023/01/10 03:01:28;;;;;;;11.73;5.37;;;;;;;;;;5058461;28;20213;-85
2023/01/10 03:06:44;;;;;;;8.37;2.53;;;;;;;;;;5195004;23;20237;-93
2023/01/10 03:09:17;;;;;;;11.00;3.30;;;;;;;;;;4958727;29;20225;-93
2023/01/10 03:11:46;;;;;;;13.97;3.57;;;;;;;;;;4941447;29;20203;-93
2023/01/10 03:14:17;;;;;;;14.83;5.37;;;;;;;;;;4941586;29;20213;-93
2023/01/10 03:16:48;;;;;;;17.17;4.63;;;;;;;;;;4941288;29;20221;-92
2023/01/10 03:19:18;;;;;;;10.57;3.27;;;;;;;;;;4941654;29;20207;-93
2023/01/10 03:21:49;;;;;;;5.03;2.37;;;;;;;;;;4941468;29;20209;-94
2023/01/10 03:24:19;;;;;;;9.70;3.50;;;;;;;;;;4958136;29;20234;-93
2023/01/10 03:26:49;;;;;;;12.00;4.07;;;;;;;;;;4957216;29;20253;-93
2023/01/10 03:29:20;;;;;;;13.43;2.77;;;;;;;;;;4941477;29;20214;-93
2023/01/10 03:31:52;;;;;;;11.53;3.90;;;;;;;;;;4941173;29;20208;-94
2023/01/10 03:34:21;;;;;;;6.60;2.77;;;;;;;;;;4941470;29;20254;-93
2023/01/10 03:36:54;;;;;;;12.13;3.60;;;;;;;;;;4940900;29;20320;-94
2023/01/10 03:39:24;;;;;;;19.50;7.27;;;;;;;;;;4958269;29;20261;-93
2023/01/10 03:41:55;;;;;;;13.57;3.47;;;;;;;;;;4941343;29;20229;-91
2023/01/10 03:44:45;;;;;;;7.87;2.27;;;;;;;;;;4957970;29;20207;-93
2023/01/10 03:47:16;;;;;;;15.87;5.00;;;;;;;;;;4941110;29;20211;-94
2023/01/10 03:49:46;;;;;;;6.53;2.87;;;;;;;;;;4958030;29;20201;-92
2023/01/10 03:52:18;;;;;;;14.53;3.47;;;;;;;;;;4957627;29;20201;-93
2023/01/10 03:54:47;;;;;;;12.43;4.67;;;;;;;;;;4940833;29;20202;-93
2023/01/10 03:57:17;;;;;;;14.27;4.03;;;;;;;;;;4940711;29;20222;-91
2023/01/10 03:59:45;;;;;;;15.93;4.67;;;;;;;;;;4957816;29;20207;-93
2023/01/10 04:02:14;;;;;;;15.00;4.67;;;;;;;;;;4940958;29;20207;-93
2023/01/10 04:04:42;;;;;;;12.03;2.63;;;;;;;;;;4957295;28;20199;-93
2023/01/10 04:07:10;;;;;;;4.70;2.40;;;;;;;;;;4921362;29;20239;-93
2023/01/10 04:09:40;;;;;;;15.67;4.43;;;;;;;;;;4938559;29;20209;-93
2023/01/10 04:12:08;;;;;;;15.80;5.50;;;;;;;;;;4921578;29;20213;-93
2023/01/10 04:14:37;;;;;;;12.97;4.23;;;;;;;;;;4938095;29;20207;-93
2023/01/10 04:17:05;;;;;;;5.07;2.00;;;;;;;;;;4938521;29;20223;-94
2023/01/10 04:19:34;;;;;;;10.53;3.50;;;;;;;;;;4921279;29;20202;-93
2023/01/10 04:22:04;;;;;;;16.60;4.27;;;;;;;;;;4921611;29;20206;-93
2023/01/10 04:24:32;;;;;;;14.87;3.17;;;;;;;;;;4921097;29;20199;-93
2023/01/10 04:27:02;;;;;;;13.90;5.00;;;;;;;;;;4937888;29;20202;-92
2023/01/10 04:29:31;;;;;;;5.30;1.67;;;;;;;;;;4920987;29;20253;-92
2023/01/10 04:31:59;;;;;;;11.03;3.93;;;;;;;;;;4921233;29;20206;-93
2023/01/10 04:34:28;;;;;;;7.37;2.80;;;;;;;;;;4921168;29;20238;-92
2023/01/10 04:36:56;;;;;;;6.00;2.70;;;;;;;;;;4920881;29;20237;-94
2023/01/10 04:39:25;;;;;;;15.47;6.10;;;;;;;;;;4920804;29;20210;-93
2023/01/10 04:41:53;;;;;;;18.47;6.40;;;;;;;;;;4921176;29;20206;-93
2023/01/10 04:44:23;;;;;;;10.43;3.37;;;;;;;;;;4920979;29;20297;-93
2023/01/10 04:46:51;;;;;;;6.67;2.17;;;;;;;;;;4920965;29;20205;-93
2023/01/10 04:49:19;;;;;;;22.53;5.97;;;;;;;;;;4920521;29;20297;-93
2023/01/10 04:51:48;;;;;;;4.07;2.57;;;;;;;;;;4937742;29;20214;-93
2023/01/10 04:54:20;;;;;;;9.53;3.03;;;;;;;;;;4920534;29;20217;-92
2023/01/10 04:56:48;;;;;;;12.43;4.03;;;;;;;;;;4920753;29;20226;-93
2023/01/10 04:59:16;;;;;;;3.97;1.87;;;;;;;;;;4937582;29;20202;-92
2023/01/10 05:01:46;;;;;;;1.87;1.70;;;;;;;;;;4920924;29;20206;-93
2023/01/10 05:04:15;;;;;;;14.90;4.40;;;;;;;;;;4920583;29;20206;-93
2023/01/10 05:06:43;;;;;;;9.53;3.03;;;;;;;;;;4920330;29;20239;-92
2023/01/10 05:09:11;;;;;;;10.83;3.43;;;;;;;;;;4920673;29;20206;-93
2023/01/10 05:11:40;;;;;;;10.77;3.47;;;;;;;;;;4937249;29;20206;-93
2023/01/10 05:14:08;;;;;;;5.77;2.80;;;;;;;;;;4937412;29;20273;-93
2023/01/10 05:16:36;;;;;;;8.37;3.57;;;;;;;;;;4920395;29;20207;-92
2023/01/10 05:19:06;;;;;;;7.47;2.40;;;;;;;;;;4920358;29;20206;-93
2023/01/10 05:21:35;;;;;;;7.33;2.63;;;;;;;;;;4920365;29;20206;-93
2023/01/10 05:24:03;;;;;;;3.93;1.90;;;;;;;;;;4937163;29;20273;-93
2023/01/10 05:26:31;;;;;;;8.20;2.67;;;;;;;;;;4936873;29;20209;-94
2023/01/10 05:29:00;;;;;;;14.33;4.07;;;;;;;;;;4920318;29;20226;-93
2023/01/10 05:31:28;;;;;;;1.50;1.40;;;;;;;;;;4920188;29;20285;-93
2023/01/10 05:33:56;;;;;;;9.83;2.23;;;;;;;;;;4937339;29;20230;-94
2023/01/10 05:36:26;;;;;;;3.20;1.93;;;;;;;;;;4920531;29;20207;-93
2023/01/10 05:38:54;;;;;;;7.80;5.10;;;;;;;;;;4920000;29;20256;-94
2023/01/10 05:41:23;;;;;;;5.30;2.03;;;;;;;;;;4936822;29;20203;-93
2023/01/10 05:43:53;;;;;;;5.27;3.30;;;;;;;;;;4919904;29;20266;-94
2023/01/10 05:46:21;;;;;;;4.37;2.17;;;;;;;;;;4920386;29;20202;-94
2023/01/10 05:48:50;;;;;;;7.20;3.90;;;;;;;;;;4920186;29;20228;-93
2023/01/10 05:51:18;;;;;;;2.53;1.43;;;;;;;;;;4920071;29;20202;-92
2023/01/10 05:53:47;;;;;;;7.23;3.23;;;;;;;;;;4920282;29;20258;-93
2023/01/10 05:56:17;;;;;;;10.67;2.97;;;;;;;;;;4937166;29;20206;-93
2023/01/10 05:58:46;;;;;;;14.27;2.47;;;;;;;;;;4920073;29;20235;-94
2023/01/10 06:01:18;;;;;;;3.23;1.67;;;;;;;;;;4919971;29;20206;-93
2023/01/10 06:03:47;;;;;;;2.50;1.73;;;;;;;;;;4935928;29;20204;-94
2023/01/10 06:06:15;;;;;;;2.80;1.60;;;;;;;;;;4936803;29;20344;-93
2023/01/10 06:08:43;;;;;;;11.63;4.30;;;;;;;;;;4936903;29;20190;-94
2023/01/10 06:11:13;;;;;;;9.90;2.17;;;;;;;;;;4919749;29;20207;-93
2023/01/10 06:13:42;;;;;;;5.57;2.20;;;;;;;;;;4920214;29;20226;-93
2023/01/10 06:16:10;;;;;;;9.57;2.83;;;;;;;;;;4936427;29;20235;-93
2023/01/10 06:18:38;;;;;;;8.37;2.97;;;;;;;;;;4919894;29;20308;-93
2023/01/10 06:21:07;;;;;;;11.30;2.77;;;;;;;;;;4919891;29;20206;-93
2023/01/10 06:23:35;;;;;;;8.87;3.83;;;;;;;;;;4919771;29;20203;-93
2023/01/10 06:26:04;;;;;;;8.07;2.93;;;;;;;;;;4919531;29;20263;-93
2023/01/10 06:28:33;;;;;;;14.03;3.37;;;;;;;;;;4920883;29;20239;-90
2023/01/10 06:31:02;;;;;;;3.60;2.70;;;;;;;;;;4923294;29;20206;-92
2023/01/10 06:33:30;;;;;;;4.13;1.50;;;;;;;;;;4923373;29;20221;-93
2023/01/10 06:35:59;;;;;;;10.23;2.77;;;;;;;;;;4923164;29;20203;-92
2023/01/10 06:38:27;;;;;;;7.13;3.00;;;;;;;;;;4923052;29;20219;-93
2023/01/10 06:40:55;;;;;;;8.83;2.50;;;;;;;;;;4922878;29;20209;-92
2023/01/10 06:43:24;;;;;;;4.00;2.40;;;;;;;;;;4923417;29;20212;-93
2023/01/10 06:45:54;;;;;;;22.67;2.27;;;;;;;;;;4939986;29;20200;-93
2023/01/10 06:48:23;;;;;;;2.47;1.87;;;;;;;;;;4939796;29;20310;-91
2023/01/10 06:50:51;;;;;;;6.87;2.50;;;;;;;;;;4939973;29;20262;-93
2023/01/10 06:53:19;;;;;;;5.53;2.07;;;;;;;;;;4940178;29;20202;-93
2023/01/10 06:55:49;;;;;;;13.93;2.60;;;;;;;;;;4940001;29;20291;-93
2023/01/10 06:58:17;;;;;;;2.90;2.37;;;;;;;;;;4922751;29;20237;-93
2023/01/10 07:00:46;;;;;;;3.57;1.40;;;;;;;;;;4923068;29;20200;-92
2023/01/10 07:03:16;;;;;;;4.13;2.47;;;;;;;;;;4922902;29;20202;-93
2023/01/10 07:05:44;;;;;;;0.83;0.83;;;;;;;;;;4939274;29;20234;-92
2023/01/10 07:08:12;;;;;;;2.70;1.47;;;;;;;;;;4926503;29;20267;-88
2023/01/10 07:10:41;;;;;;;1.60;1.50;;;;;;;;;;4944669;29;20198;-94
2023/01/10 07:13:10;;;;;;;8.57;2.20;;;;;;;;;;4942371;29;20202;-94
2023/01/10 07:15:38;;;;;;;10.30;2.10;;;;;;;;;;4922483;29;20237;-94
2023/01/10 07:18:07;;;;;;;4.90;1.87;;;;;;;;;;4923089;29;20320;-94
2023/01/10 07:20:38;;;;;;;1.87;1.77;;;;;;;;;;4939449;29;20206;-94
2023/01/10 07:23:07;;;;;;;8.40;2.77;;;;;;;;;;4939230;29;20282;-94
2023/01/10 07:25:35;;;;;;;4.90;2.57;;;;;;;;;;4939518;29;20250;-93
2023/01/10 07:28:05;;;;;;;3.33;3.00;;;;;;;;;;4922929;29;20202;-94
2023/01/10 07:30:33;;;;;;;2.93;1.20;;;;;;;;;;4922710;29;20198;-94
2023/01/10 07:33:02;;;;;;;9.73;2.60;;;;;;;;;;4922870;29;20227;-95
2023/01/10 07:35:31;;;;;;;9.23;4.30;;;;;;;;;;4922520;29;20210;-94
2023/01/10 07:38:02;;;;;;;17.27;5.37;;;;;;;;;;4922342;29;20213;-94
2023/01/10 07:40:30;;;;;;;9.93;3.27;;;;;;;;;;4936699;29;20225;-94
2023/01/10 07:42:59;;;;;;;14.70;5.57;;;;;;;;;;4922466;29;20212;-94
2023/01/10 07:45:28;;;;;;;8.97;4.00;;;;;;;;;;4922459;29;20218;-93
2023/01/10 07:47:57;;;;;;;5.50;2.87;;;;;;;;;;4939456;29;20293;-95
2023/01/10 07:50:26;;;;;;;12.10;2.43;;;;;;;;;;4938804;29;20203;-94
2023/01/10 07:52:55;;;;;;;13.73;3.43;;;;;;;;;;4922541;29;20214;-94
2023/01/10 07:55:24;;;;;;;14.77;2.80;;;;;;;;;;4922379;29;20208;-96
2023/01/10 07:57:53;;;;;;;3.93;1.43;;;;;;;;;;4921868;29;20211;-95
2023/01/10 08:00:22;;;;;;;5.90;2.10;;;;;;;;;;4921659;29;20230;-95
2023/01/10 08:02:53;;;;;;;8.23;3.43;;;;;;;;;;4938832;29;20218;-95
2023/01/10 08:05:22;;;;;;;8.47;2.77;;;;;;;;;;4921767;29;20248;-95
2023/01/10 08:07:51;;;;;;;16.67;5.23;;;;;;;;;;4921777;29;20202;-95
2023/01/10 08:10:19;;;;;;;6.70;2.13;;;;;;;;;;4921939;29;20315;-95
2023/01/10 08:12:50;;;;;;;7.53;2.80;;;;;;;;;;4938684;29;20218;-95
2023/01/10 08:15:18;;;;;;;8.37;2.50;;;;;;;;;;4938305;29;20231;-95
2023/01/10 08:17:47;;;;;;;10.67;2.97;;;;;;;;;;4938390;29;20258;-95
2023/01/10 08:20:15;;;;;;;17.97;5.27;;;;;;;;;;4921464;29;20233;-95
2023/01/10 08:22:44;;;;;;;9.57;5.27;;;;;;;;;;4921561;29;20207;-95
2023/01/10 08:25:12;;;;;;;8.23;3.70;;;;;;;;;;4921439;29;20211;-95
2023/01/10 08:27:41;;;;;;;21.97;5.17;;;;;;;;;;4938109;29;20218;-93
2023/01/10 08:30:11;;;;;;;14.67;2.80;;;;;;;;;;4937858;29;20191;-95
2023/01/10 08:32:40;;;;;;;10.33;2.07;;;;;;;;;;4921438;29;20206;-95
2023/01/10 08:35:09;;;;;;;13.13;4.93;;;;;;;;;;4921236;29;20210;-95
2023/01/10 08:37:37;;;;;;;22.83;5.13;;;;;;;;;;4922393;29;20209;-95
2023/01/10 08:40:11;;;;;;;28.03;8.90;;;;;;;;;;4918495;29;20208;-92
2023/01/10 08:42:39;;;;;;;6.40;3.87;;;;;;;;;;4915909;29;20211;-87
2023/01/10 08:45:08;;;;;;;10.53;6.57;;;;;;;;;;4922463;29;20275;-90
2023/01/10 08:47:38;;;;;;;6.00;2.33;;;;;;;;;;4923961;29;20202;-92
2023/01/10 08:50:13;;;;;;;9.47;3.30;;;;;;;;;;4912538;29;20210;-90
2023/01/10 08:52:41;;;;;;;2.40;2.00;;;;;;;;;;4913367;29;20213;-91
2023/01/10 08:55:10;;;;;;;10.60;2.27;;;;;;;;;;4935391;29;20206;-88
2023/01/10 08:57:39;;;;;;;10.33;5.47;;;;;;;;;;4915801;29;20208;-91
2023/01/10 09:00:08;;;;;;;11.13;3.37;;;;;;;;;;4930284;29;20219;-91
2023/01/10 09:02:36;;;;;;;3.60;2.10;;;;;;;;;;4926932;29;20195;-91
2023/01/10 09:05:06;;;;;;;10.87;4.17;;;;;;;;;;4908385;29;20234;-92
2023/01/10 09:07:53;;;;;;;9.20;3.60;;;;;;;;;;4919919;29;20211;-92
2023/01/10 09:10:33;;;;;;;22.30;4.93;;;;;;;;;;4919962;29;20226;-92
2023/01/10 09:13:04;;;;;;;23.17;6.10;;;;;;;;;;4943561;29;20225;-93
2023/01/10 09:15:34;;;;;;;21.20;5.57;;;;;;;;;;4933867;29;20207;-90
2023/01/10 09:18:04;;;;;;;16.10;3.90;;;;;;;;;;4914145;29;20229;-90
2023/01/10 09:20:35;;;;;;;10.10;3.50;;;;;;;;;;4915264;29;20221;-91
2023/01/10 09:23:08;;;;;;;10.27;3.83;;;;;;;;;;4915448;29;20203;-89
2023/01/10 09:25:36;;;;;;;18.13;5.70;;;;;;;;;;4912689;29;20203;-92
2023/01/10 09:28:05;;;;;;;24.47;6.83;;;;;;;;;;4911612;29;20230;-92
2023/01/10 09:30:34;;;;;;;14.60;3.77;;;;;;;;;;4919335;29;20242;-91
2023/01/10 09:33:02;;;;;;;19.43;5.73;;;;;;;;;;4911292;29;20206;-92
2023/01/10 09:35:31;;;;;;;22.43;5.90;;;;;;;;;;4919875;29;20221;-90
2023/01/10 09:38:01;;;;;;;15.40;5.23;;;;;;;;;;4916350;29;20214;-90
2023/01/10 09:40:34;;;;;;;17.20;5.20;;;;;;;;;;4916654;29;20222;-88
2023/01/10 09:43:06;;;;;;;16.00;7.03;;;;;;;;;;4912125;29;20213;-89
2023/01/10 09:45:38;;;;;;;13.63;4.33;;;;;;;;;;4925301;29;20249;-93
2023/01/10 09:48:08;;;;;;;18.60;6.23;;;;;;;;;;4909498;29;20202;-91
2023/01/10 09:50:44;;;;;;;14.90;4.70;;;;;;;;;;4925189;29;20261;-90
2023/01/10 09:53:16;;;;;;;21.30;6.57;;;;;;;;;;4930684;29;20216;-88
2023/01/10 09:55:46;;;;;;;20.87;7.00;;;;;;;;;;4910164;29;20206;-92
2023/01/10 09:58:16;;;;;;;9.80;3.70;;;;;;;;;;4914701;29;20218;-92
2023/01/10 10:00:45;;;;;;;27.93;6.43;;;;;;;;;;4931143;29;20266;-92
2023/01/10 10:03:26;;;;;;;11.13;3.50;;;;;;;;;;4916120;29;20225;-91
2023/01/10 10:05:55;;;;;;;13.60;3.70;;;;;;;;;;4924170;29;20249;-91
2023/01/10 10:08:40;;;;;;;17.43;5.50;;;;;;;;;;4917045;29;20202;-90
2023/01/10 10:11:16;;;;;;;19.67;5.70;;;;;;;;;;4929963;29;20202;-91
2023/01/10 10:13:48;;;;;;;12.80;5.17;;;;;;;;;;4911494;29;20205;-92
2023/01/10 10:16:22;;;;;;;19.07;7.20;;;;;;;;;;4914863;29;20202;-93
2023/01/10 10:18:54;;;;;;;18.90;7.53;;;;;;;;;;4914847;29;20217;-88
2023/01/10 10:21:27;;;;;;;23.40;6.50;;;;;;;;;;4909274;29;20229;-91
2023/01/10 10:24:10;;;;;;;17.37;5.73;;;;;;;;;;4909740;29;20198;-91
2023/01/10 10:26:44;;;;;;;18.97;3.37;;;;;;;;;;4918385;29;20214;-90
2023/01/10 10:29:24;;;;;;;19.97;8.03;;;;;;;;;;4914594;29;20207;-89
2023/01/10 10:32:08;;;;;;;21.67;7.00;;;;;;;;;;4921933;29;20239;-90
2023/01/10 10:34:40;;;;;;;17.73;5.00;;;;;;;;;;4914850;29;20241;-89
2023/01/10 10:37:12;;;;;;;17.47;4.87;;;;;;;;;;4928124;29;20203;-89
2023/01/10 10:39:43;;;;;;;19.80;4.20;;;;;;;;;;4915544;29;20235;-89
2023/01/10 10:42:15;;;;;;;22.97;7.83;;;;;;;;;;4911814;29;20262;-89
2023/01/10 10:44:45;;;;;;;22.60;6.70;;;;;;;;;;4915593;29;20241;-91
2023/01/10 10:47:15;;;;;;;14.60;4.87;;;;;;;;;;4931095;29;20215;-89
2023/01/10 10:49:45;;;;;;;21.63;7.83;;;;;;;;;;4915662;29;20234;-89
2023/01/10 10:52:20;;;;;;;15.37;4.80;;;;;;;;;;4916063;29;20233;-90
2023/01/10 10:54:51;;;;;;;25.80;6.90;;;;;;;;;;4917900;29;20205;-90
2023/01/10 10:57:22;;;;;;;17.33;6.07;;;;;;;;;;4914116;29;20217;-90
2023/01/10 10:59:51;;;;;;;15.20;5.53;;;;;;;;;;4917014;29;20297;-92
2023/01/10 11:02:22;;;;;;;18.37;5.03;;;;;;;;;;4913190;29;20215;-89
2023/01/10 11:04:55;;;;;;;19.93;8.73;;;;;;;;;;4929817;29;20230;-89
2023/01/10 11:07:25;;;;;;;19.67;5.67;;;;;;;;;;4912168;29;20306;-89
2023/01/10 11:09:59;;;;;;;23.47;6.43;;;;;;;;;;4917708;29;20214;-90
2023/01/10 11:12:31;;;;;;;19.00;5.70;;;;;;;;;;4932302;29;20290;-88
2023/01/10 11:15:03;;;;;;;20.87;6.07;;;;;;;;;;4923666;29;20209;-89
2023/01/10 11:17:39;;;;;;;11.63;6.03;;;;;;;;;;4934941;29;20226;-88
2023/01/10 11:20:14;;;;;;;34.03;6.33;;;;;;;;;;4921863;29;20211;-89
2023/01/10 11:22:47;;;;;;;20.43;6.50;;;;;;;;;;4913498;29;20198;-89
2023/01/10 11:25:16;;;;;;;22.13;7.20;;;;;;;;;;4912847;29;20211;-88
2023/01/10 11:27:48;;;;;;;11.97;6.10;;;;;;;;;;4933880;29;20271;-88
2023/01/10 11:30:19;;;;;;;23.53;8.43;;;;;;;;;;4915218;29;20211;-88
2023/01/10 11:32:50;;;;;;;21.47;7.03;;;;;;;;;;4913426;29;20207;-86
2023/01/10 11:35:21;;;;;;;19.37;8.87;;;;;;;;;;4914552;29;20381;-87
2023/01/10 11:37:59;;;;;;;17.20;6.00;;;;;;;;;;4924213;29;20235;-86
2023/01/10 11:40:29;;;;;;;18.50;6.23;;;;;;;;;;4924052;29;20230;-85
2023/01/10 11:43:00;;;;;;;16.70;6.00;;;;;;;;;;4931825;29;20213;-85
2023/01/10 11:45:31;;;;;;;21.50;8.27;;;;;;;;;;4925935;29;20233;-85
2023/01/10 11:48:07;;;;;;;18.83;7.27;;;;;;;;;;4926498;29;20202;-88
2023/01/10 11:50:37;;;;;;;22.43;7.87;;;;;;;;;;4926323;29;20195;-85
2023/01/10 11:53:08;;;;;;;20.77;7.13;;;;;;;;;;4918259;29;20226;-87
2023/01/10 11:55:38;;;;;;;24.40;7.87;;;;;;;;;;4919494;29;20211;-87
2023/01/10 11:58:09;;;;;;;15.67;5.73;;;;;;;;;;4919476;29;20209;-87
2023/01/10 12:00:39;;;;;;;19.47;6.57;;;;;;;;;;4917063;29;20203;-88
2023/01/10 12:03:22;;;;;;;15.60;7.70;;;;;;;;;;4913415;29;20262;-86
2023/01/10 12:05:52;;;;;;;16.77;5.33;;;;;;;;;;4912793;29;20252;-86
2023/01/10 12:08:25;;;;;;;3.83;3.03;;;;;;;;;;4920835;29;20219;-87
2023/01/10 12:11:00;;;;;;;17.80;6.27;;;;;;;;;;4910527;29;20202;-87
2023/01/10 12:13:31;;;;;;;19.57;6.90;;;;;;;;;;4920338;29;20258;-89
2023/01/10 12:16:15;;;;;;;11.50;3.23;;;;;;;;;;4915369;29;20238;-90
2023/01/10 12:18:44;;;;;;;21.47;7.97;;;;;;;;;;4912066;29;20217;-88
2023/01/10 12:21:16;;;;;;;20.27;5.37;;;;;;;;;;4916080;29;20215;-89
2023/01/10 12:23:48;;;;;;;20.37;7.50;;;;;;;;;;4918206;29;20231;-88
2023/01/10 12:26:34;;;;;;;15.67;5.90;;;;;;;;;;4917397;29;20204;-90
2023/01/10 12:29:08;;;;;;;17.10;7.93;;;;;;;;;;4912161;29;20207;-87
2023/01/10 12:31:37;;;;;;;20.43;5.83;;;;;;;;;;4914995;29;20201;-88
2023/01/10 12:34:08;;;;;;;17.90;6.10;;;;;;;;;;4921391;29;20233;-89
2023/01/10 12:36:43;;;;;;;21.97;6.90;;;;;;;;;;4905188;29;20245;-89
2023/01/10 12:39:20;;;;;;;19.57;7.23;;;;;;;;;;4912386;29;20294;-88
2023/01/10 12:44:41;;;;;;;18.47;6.87;;;;;;;;;;4927342;29;20253;-89
2023/01/10 12:47:18;;;;;;;20.30;6.93;;;;;;;;;;4902208;29;20207;-90
2023/01/10 12:49:49;;;;;;;15.90;5.00;;;;;;;;;;4910247;29;20203;-90
2023/01/10 12:52:25;;;;;;;12.30;4.37;;;;;;;;;;4910936;29;20214;-89
2023/01/10 12:54:53;;;;;;;24.53;7.77;;;;;;;;;;4911336;29;20218;-89
2023/01/10 12:57:24;;;;;;;22.00;5.33;;;;;;;;;;4908695;29;20211;-88
2023/01/10 12:59:55;;;;;;;21.33;6.33;;;;;;;;;;4928051;29;20206;-88
2023/01/10 13:02:26;;;;;;;12.83;5.67;;;;;;;;;;4916666;29;20218;-88
2023/01/10 13:04:57;;;;;;;16.40;7.57;;;;;;;;;;4914540;29;20217;-88
2023/01/10 13:07:28;;;;;;;19.50;7.07;;;;;;;;;;4898645;29;20247;-89
2023/01/10 13:09:58;;;;;;;15.80;5.83;;;;;;;;;;4907630;29;20203;-90
2023/01/10 13:12:34;;;;;;;20.90;8.67;;;;;;;;;;4893626;29;20214;-90
2023/01/10 13:15:07;;;;;;;11.23;5.30;;;;;;;;;;4893028;29;20211;-91
2023/01/10 13:17:41;;;;;;;16.50;6.53;;;;;;;;;;4905406;29;20212;-91
2023/01/10 13:20:19;;;;;;;14.40;6.87;;;;;;;;;;4906155;29;20214;-88
2023/01/10 13:22:50;;;;;;;20.83;6.53;;;;;;;;;;4890721;29;20224;-90
2023/01/10 13:25:20;;;;;;;18.90;7.80;;;;;;;;;;4891963;29;20211;-90
2023/01/10 13:27:56;;;;;;;17.73;6.73;;;;;;;;;;4892037;29;20226;-91
2023/01/10 13:30:28;;;;;;;25.67;5.77;;;;;;;;;;4909221;29;20223;-90
2023/01/10 13:33:00;;;;;;;22.37;7.03;;;;;;;;;;4902856;29;20203;-92
2023/01/10 13:35:28;;;;;;;22.73;7.70;;;;;;;;;;4894168;29;20211;-90
2023/01/10 13:37:57;;;;;;;15.33;6.63;;;;;;;;;;4910667;29;20385;-89
2023/01/10 13:40:27;;;;;;;18.20;7.87;;;;;;;;;;4912285;29;20302;-90
2023/01/10 13:43:19;;;;;;;16.60;5.73;;;;;;;;;;4907227;29;20232;-93
2023/01/10 13:46:09;;;;;;;16.47;7.33;;;;;;;;;;4898176;29;20210;-85
2023/01/10 13:48:38;;;;;;;16.23;6.47;;;;;;;;;;4892695;29;20242;-92
2023/01/10 13:51:08;;;;;;;16.93;6.67;;;;;;;;;;4897325;29;20208;-89
2023/01/10 13:53:44;;;;;;;19.17;8.27;;;;;;;;;;4892859;29;20196;-93
2023/01/10 13:56:29;;;;;;;17.77;7.00;;;;;;;;;;4893258;29;20223;-92
2023/01/10 14:04:38;;;;;;;15.10;6.13;;;;;;;;;;4893056;29;20215;-86
2023/01/10 14:07:13;;;;;;;17.23;6.13;;;;;;;;;;4904022;29;20330;-93
2023/01/10 14:09:44;;;;;;;11.00;4.57;;;;;;;;;;4920495;29;20235;-95
2023/01/10 14:12:25;;;;;;;17.07;6.33;;;;;;;;;;4902761;29;20196;-94
2023/01/10 14:15:05;;;;;;;16.27;8.17;;;;;;;;;;4912023;29;20216;-95
2023/01/10 14:17:39;;;;;;;24.67;8.73;;;;;;;;;;4915331;29;20231;-95
2023/01/10 14:20:23;;;;;;;22.10;8.07;;;;;;;;;;4916805;29;20290;-93
2023/01/10 14:23:02;;;;;;;22.20;5.97;;;;;;;;;;4915569;29;20219;-94
2023/01/10 14:25:32;;;;;;;23.23;9.57;;;;;;;;;;4924469;29;20207;-92
2023/01/10 14:28:04;;;;;;;21.33;8.53;;;;;;;;;;4915439;29;20199;-93
2023/01/10 14:30:35;;;;;;;21.23;6.13;;;;;;;;;;4915084;29;20231;-91
2023/01/10 14:33:11;;;;;;;25.70;10.40;;;;;;;;;;4916628;29;20207;-92
2023/01/10 14:35:43;;;;;;;18.37;8.07;;;;;;;;;;4915794;29;20278;-94
2023/01/10 14:38:16;;;;;;;22.70;8.07;;;;;;;;;;4927233;29;20223;-91
2023/01/10 14:40:49;;;;;;;27.33;9.67;;;;;;;;;;4938672;29;20217;-93
2023/01/10 14:43:23;;;;;;;19.57;7.73;;;;;;;;;;4912816;29;20222;-89
2023/01/10 14:45:56;;;;;;;16.87;7.50;;;;;;;;;;4922224;29;20234;-87
2023/01/10 14:48:28;;;;;;;22.60;8.37;;;;;;;;;;4905987;29;20207;-93
2023/01/10 14:51:20;;;;;;;21.00;7.67;;;;;;;;;;4935521;29;20294;-85
2023/01/10 14:53:55;;;;;;;24.00;8.70;;;;;;;;;;4923008;29;20286;-91
2023/01/10 14:56:25;;;;;;;21.33;7.97;;;;;;;;;;4919921;29;20206;-89
2023/01/10 14:58:54;;;;;;;14.17;8.40;;;;;;;;;;4919157;29;20202;-85
2023/01/10 15:01:24;;;;;;;18.87;9.63;;;;;;;;;;4919646;29;20203;-86
2023/01/10 15:03:55;;;;;;;19.13;9.47;;;;;;;;;;4918895;29;20243;-87
2023/01/10 15:06:26;;;;;;;29.67;10.47;;;;;;;;;;4916558;29;20249;-87
2023/01/10 15:08:59;;;;;;;24.20;7.13;;;;;;;;;;4921509;29;20209;-83
2023/01/10 15:11:28;;;;;;;15.33;8.27;;;;;;;;;;4914677;29;20210;-86